Time;durP1;ratioP1;P1;durP2;ratioP2;P2;SDS_P1;SDS_P2;PMS_P1;PMS_P2;Temp;Humidity;BMP_temperature;BMP_pressure;BME280_temperature;BME280_humidity;BME280_pressure;Samples;Min_cycle;Max_cycle;Signal;HPM_P1;HPM_P2
2023/07/18 00:02:10;;;;;;;3.73;2.37;;;13.70;99.90;;;;;;5052918;28;20216;-57
2023/07/18 00:04:37;;;;;;;4.13;2.23;;;13.60;99.90;;;;;;5082741;28;20182;-53
2023/07/18 00:07:04;;;;;;;3.83;1.80;;;13.60;99.90;;;;;;5077532;28;20286;-53
2023/07/18 00:09:31;;;;;;;4.77;2.33;;;13.60;99.90;;;;;;5067237;28;20340;-54
2023/07/18 00:11:59;;;;;;;2.03;1.90;;;13.60;99.90;;;;;;5082747;28;20194;-49
2023/07/18 00:14:27;;;;;;;6.00;2.30;;;13.60;99.90;;;;;;5074110;28;20269;-49
2023/07/18 00:16:55;;;;;;;4.43;2.10;;;13.60;99.90;;;;;;5063309;28;20229;-54
2023/07/18 00:19:22;;;;;;;2.70;2.30;;;13.60;99.90;;;;;;5079705;28;20828;-54
2023/07/18 00:21:48;;;;;;;5.60;2.07;;;13.60;99.90;;;;;;5079044;28;20194;-57
2023/07/18 00:24:15;;;;;;;2.50;2.00;;;13.60;99.90;;;;;;5068872;28;20212;-56
2023/07/18 00:26:42;;;;;;;3.07;2.47;;;13.70;99.90;;;;;;5081333;28;20252;-52
2023/07/18 00:29:09;;;;;;;3.80;2.30;;;13.60;99.90;;;;;;5074474;28;20236;-56
2023/07/18 00:31:36;;;;;;;3.63;1.77;;;13.60;99.90;;;;;;5059244;28;24123;-54
2023/07/18 00:34:06;;;;;;;5.30;1.97;;;13.60;99.90;;;;;;5076061;28;20201;-58
2023/07/18 00:36:32;;;;;;;2.23;1.97;;;13.60;99.90;;;;;;5081204;28;20285;-52
2023/07/18 00:38:59;;;;;;;3.97;2.40;;;13.60;99.90;;;;;;5076384;28;20205;-50
2023/07/18 00:41:26;;;;;;;3.83;1.60;;;13.60;99.90;;;;;;5072825;28;20947;-52
2023/07/18 00:43:53;;;;;;;2.47;2.13;;;13.60;99.90;;;;;;5083876;28;20219;-53
2023/07/18 00:46:21;;;;;;;4.90;2.40;;;13.60;99.90;;;;;;5067128;28;20217;-55
2023/07/18 00:48:48;;;;;;;3.13;2.17;;;13.60;99.90;;;;;;5063745;28;20214;-52
2023/07/18 00:51:16;;;;;;;3.33;2.27;;;13.60;99.90;;;;;;5081064;28;20571;-55
2023/07/18 00:53:43;;;;;;;4.03;2.20;;;13.50;99.90;;;;;;5076536;28;20845;-50
2023/07/18 00:56:09;;;;;;;5.20;2.40;;;13.50;99.90;;;;;;5073157;28;20218;-57
2023/07/18 00:58:36;;;;;;;2.97;2.20;;;13.50;99.90;;;;;;5076699;28;20281;-53
2023/07/18 01:01:04;;;;;;;2.97;2.03;;;13.50;99.90;;;;;;5073254;28;20286;-56
2023/07/18 01:03:30;;;;;;;3.10;2.40;;;13.50;99.90;;;;;;5057905;28;20206;-54
2023/07/18 01:05:57;;;;;;;6.57;2.43;;;13.50;99.90;;;;;;5083364;28;20206;-50
2023/07/18 01:08:27;;;;;;;2.33;2.13;;;13.50;99.90;;;;;;5075964;28;20204;-50
2023/07/18 01:10:56;;;;;;;4.57;2.50;;;;;;;;;;5064362;28;20210;-51
2023/07/18 01:13:23;;;;;;;3.93;2.03;;;;;;;;;;5077920;28;20215;-54
2023/07/18 01:15:51;;;;;;;2.90;2.63;;;;;;;;;;5077138;28;20579;-54
2023/07/18 01:18:18;;;;;;;2.60;2.00;;;13.10;99.90;;;;;;5059181;28;20725;-55
2023/07/18 01:20:46;;;;;;;5.80;2.40;;;13.10;99.90;;;;;;5078435;28;20672;-55
2023/07/18 01:23:14;;;;;;;3.23;2.10;;;13.20;99.90;;;;;;5078302;28;20235;-55
2023/07/18 01:25:42;;;;;;;3.80;2.10;;;13.30;99.90;;;;;;5071247;28;20236;-52
2023/07/18 01:28:10;;;;;;;2.63;2.43;;;13.30;99.90;;;;;;5080528;28;20186;-53
2023/07/18 01:30:37;;;;;;;3.47;2.27;;;13.20;99.90;;;;;;5067303;28;20964;-53
2023/07/18 01:33:04;;;;;;;2.43;2.10;;;13.30;99.90;;;;;;5066772;28;20190;-56
2023/07/18 01:35:31;;;;;;;5.40;2.97;;;13.30;99.90;;;;;;5062629;28;20222;-51
2023/07/18 01:37:59;;;;;;;3.30;2.33;;;13.30;99.90;;;;;;5081336;28;20247;-52
2023/07/18 01:40:28;;;;;;;2.97;2.10;;;13.20;99.90;;;;;;5076924;28;20268;-54
2023/07/18 01:42:58;;;;;;;6.33;3.57;;;13.20;99.90;;;;;;5062429;28;20637;-50
2023/07/18 01:45:27;;;;;;;5.10;3.67;;;13.20;99.90;;;;;;5077037;28;20753;-53
2023/07/18 01:47:56;;;;;;;5.97;3.60;;;13.30;99.90;;;;;;5063856;28;20777;-51
2023/07/18 01:50:22;;;;;;;5.53;3.27;;;13.30;99.90;;;;;;5056076;28;20214;-50
2023/07/18 01:52:50;;;;;;;6.77;3.30;;;13.20;99.90;;;;;;5077670;28;20182;-56
2023/07/18 01:55:17;;;;;;;7.67;3.50;;;13.20;99.90;;;;;;5081372;28;20226;-51
2023/07/18 01:57:47;;;;;;;6.03;3.33;;;13.20;99.90;;;;;;5066003;28;20243;-54
2023/07/18 02:00:19;;;;;;;4.53;4.13;;;13.20;99.90;;;;;;5081907;28;20183;-54
2023/07/18 02:02:48;;;;;;;6.87;3.30;;;13.20;99.90;;;;;;5072538;28;20424;-56
2023/07/18 02:05:17;;;;;;;6.20;4.23;;;13.20;99.90;;;;;;5061798;28;20553;-50
2023/07/18 02:07:44;;;;;;;7.47;4.43;;;13.20;99.90;;;;;;5077662;28;20190;-57
2023/07/18 02:10:11;;;;;;;7.77;4.17;;;13.30;99.90;;;;;;5076966;28;20210;-56
2023/07/18 02:12:39;;;;;;;5.47;4.47;;;13.20;99.90;;;;;;5074188;28;20264;-56
2023/07/18 02:15:09;;;;;;;10.90;4.80;;;13.20;99.90;;;;;;5078557;28;20711;-51
2023/07/18 02:17:36;;;;;;;7.27;4.93;;;13.20;99.90;;;;;;5075611;28;20201;-56
2023/07/18 02:20:06;;;;;;;6.37;5.00;;;13.20;99.90;;;;;;5054073;28;20244;-57
2023/07/18 02:22:35;;;;;;;9.60;5.40;;;13.20;99.90;;;;;;5074765;28;20198;-56
2023/07/18 02:25:03;;;;;;;6.37;5.30;;;13.20;99.90;;;;;;5084338;28;20239;-50
2023/07/18 02:27:32;;;;;;;10.07;5.60;;;13.20;99.90;;;;;;5084653;28;20210;-57
2023/07/18 02:30:00;;;;;;;7.03;5.43;;;13.20;99.90;;;;;;5075588;28;20201;-49
2023/07/18 02:32:29;;;;;;;8.10;6.17;;;13.20;99.90;;;;;;5079705;28;20770;-53
2023/07/18 02:34:55;;;;;;;8.13;5.53;;;13.20;99.90;;;;;;5074974;28;20190;-48
2023/07/18 02:37:23;;;;;;;8.57;6.10;;;13.20;99.90;;;;;;5064324;28;20263;-53
2023/07/18 02:39:50;;;;;;;10.13;6.17;;;13.10;99.90;;;;;;5079481;28;20330;-51
2023/07/18 02:42:18;;;;;;;7.43;5.60;;;13.10;99.90;;;;;;5085700;28;20193;-53
2023/07/18 02:44:46;;;;;;;11.73;6.73;;;13.10;99.90;;;;;;5069754;28;20205;-55
2023/07/18 02:47:12;;;;;;;6.27;5.53;;;13.10;99.90;;;;;;5084145;28;20695;-50
2023/07/18 02:49:41;;;;;;;13.20;6.53;;;13.10;99.90;;;;;;5075007;28;20209;-55
2023/07/18 02:52:08;;;;;;;10.07;6.93;;;13.10;99.90;;;;;;5066672;28;20210;-53
2023/07/18 02:54:35;;;;;;;7.10;6.50;;;13.10;99.90;;;;;;5081445;28;20240;-56
2023/07/18 02:57:02;;;;;;;12.40;6.83;;;13.10;99.90;;;;;;5076314;28;20933;-53
2023/07/18 02:59:29;;;;;;;8.80;6.90;;;13.10;99.90;;;;;;5076532;28;20271;-53
2023/07/18 03:01:56;;;;;;;12.73;6.43;;;13.10;99.90;;;;;;5081855;28;20240;-54
2023/07/18 03:04:24;;;;;;;9.53;5.90;;;13.10;99.90;;;;;;5077149;28;20190;-55
2023/07/18 03:06:52;;;;;;;8.27;6.27;;;13.10;99.90;;;;;;5081581;28;20244;-54
2023/07/18 03:09:21;;;;;;;9.40;6.70;;;13.10;99.90;;;;;;5054781;28;20690;-56
2023/07/18 03:11:49;;;;;;;12.33;7.70;;;13.10;99.90;;;;;;5081236;28;20325;-55
2023/07/18 03:14:17;;;;;;;8.20;6.20;;;13.10;99.90;;;;;;5081959;28;20190;-55
2023/07/18 03:16:45;;;;;;;9.40;6.63;;;13.00;99.90;;;;;;5075386;28;20217;-53
2023/07/18 03:19:14;;;;;;;7.97;6.53;;;13.10;99.90;;;;;;5083490;28;20196;-53
2023/07/18 03:21:41;;;;;;;12.63;6.47;;;13.10;99.90;;;;;;5071211;28;20432;-50
2023/07/18 03:24:09;;;;;;;8.93;6.37;;;13.10;99.90;;;;;;5064965;28;20198;-52
2023/07/18 03:26:37;;;;;;;7.67;6.00;;;13.10;99.90;;;;;;5079154;28;20201;-55
2023/07/18 03:29:05;;;;;;;7.60;6.00;;;13.10;99.90;;;;;;5085082;28;20792;-48
2023/07/18 03:31:32;;;;;;;6.87;6.10;;;13.10;99.90;;;;;;5070119;28;20236;-58
2023/07/18 03:33:59;;;;;;;8.87;6.13;;;13.10;99.90;;;;;;5071790;28;20732;-56
2023/07/18 03:36:27;;;;;;;8.13;6.40;;;13.00;99.90;;;;;;5074011;28;20217;-53
2023/07/18 03:38:54;;;;;;;9.70;6.60;;;13.00;99.90;;;;;;5081652;28;20542;-51
2023/07/18 03:41:27;;;;;;;10.50;7.17;;;13.00;99.90;;;;;;5068872;28;20194;-54
2023/07/18 03:43:54;;;;;;;9.50;6.43;;;13.00;99.90;;;;;;5080336;28;20186;-55
2023/07/18 03:46:22;;;;;;;9.37;6.70;;;13.10;99.90;;;;;;5071217;28;21037;-56
2023/07/18 03:48:51;;;;;;;9.17;6.30;;;13.10;99.90;;;;;;5073149;28;20213;-55
2023/07/18 03:51:18;;;;;;;9.30;7.73;;;13.10;99.90;;;;;;5066795;28;21736;-52
2023/07/18 03:53:45;;;;;;;10.90;7.23;;;13.10;99.90;;;;;;5084301;28;20221;-54
2023/07/18 03:56:12;;;;;;;14.57;7.33;;;13.10;99.90;;;;;;5049444;28;20954;-55
2023/07/18 03:58:40;;;;;;;8.57;7.17;;;13.10;99.90;;;;;;5083394;28;20198;-54
2023/07/18 04:01:08;;;;;;;10.03;6.67;;;13.20;99.90;;;;;;5071779;28;20190;-51
2023/07/18 04:03:35;;;;;;;12.17;7.03;;;13.20;99.90;;;;;;5076786;28;20202;-52
2023/07/18 04:06:02;;;;;;;11.23;7.00;;;13.20;99.90;;;;;;5076306;28;20816;-56
2023/07/18 04:08:29;;;;;;;10.37;6.33;;;13.20;99.90;;;;;;5075822;28;20281;-54
2023/07/18 04:10:58;;;;;;;10.00;7.33;;;13.20;99.90;;;;;;5072903;28;20213;-54
2023/07/18 04:13:25;;;;;;;9.33;7.10;;;13.20;99.90;;;;;;5071341;28;20718;-53
2023/07/18 04:15:54;;;;;;;9.10;6.87;;;13.20;99.90;;;;;;5082590;28;20240;-53
2023/07/18 04:18:21;;;;;;;10.27;6.93;;;13.20;99.90;;;;;;5074479;28;20259;-50
2023/07/18 04:20:49;;;;;;;9.27;7.10;;;13.30;99.90;;;;;;5078014;28;20283;-55
2023/07/18 04:23:16;;;;;;;10.77;6.97;;;13.30;99.90;;;;;;5068750;28;20204;-54
2023/07/18 04:25:56;;;;;;;11.60;7.27;;;13.30;99.90;;;;;;5084102;28;20210;-54
2023/07/18 04:28:23;;;;;;;10.57;6.60;;;13.40;99.90;;;;;;5051502;28;20205;-51
2023/07/18 04:30:50;;;;;;;11.97;7.33;;;13.50;99.90;;;;;;5080423;28;20186;-56
2023/07/18 04:33:18;;;;;;;11.17;7.30;;;13.50;99.90;;;;;;5067351;28;20267;-51
2023/07/18 04:35:45;;;;;;;8.80;7.03;;;13.60;99.90;;;;;;5083726;28;20238;-53
2023/07/18 04:38:13;;;;;;;12.87;7.00;;;13.60;99.90;;;;;;5056218;28;20697;-50
2023/07/18 04:40:40;;;;;;;11.30;7.00;;;13.70;99.90;;;;;;5077419;28;20198;-57
2023/07/18 04:43:07;;;;;;;11.00;7.47;;;13.70;99.90;;;;;;5057590;28;20210;-55
2023/07/18 04:45:34;;;;;;;11.50;7.47;;;13.80;99.90;;;;;;5078730;28;20251;-56
2023/07/18 04:48:01;;;;;;;12.30;6.73;;;13.80;99.90;;;;;;5074341;28;20402;-52
2023/07/18 04:50:30;;;;;;;10.03;7.33;;;13.90;99.90;;;;;;5076792;28;20714;-54
2023/07/18 04:52:57;;;;;;;11.17;7.23;;;13.90;99.90;;;;;;5060966;28;21592;-50
2023/07/18 04:55:25;;;;;;;16.40;7.77;;;14.00;99.90;;;;;;5061296;28;20266;-54
2023/07/18 04:57:52;;;;;;;12.67;7.57;;;14.00;99.90;;;;;;4940343;28;20346;-56
2023/07/18 05:00:20;;;;;;;8.77;6.27;;;14.00;99.90;;;;;;4998762;28;20271;-55
2023/07/18 05:02:47;;;;;;;9.83;6.60;;;14.10;99.90;;;;;;4982435;28;20229;-52
2023/07/18 05:05:14;;;;;;;12.37;6.67;;;14.10;99.90;;;;;;4911844;28;20229;-57
2023/07/18 05:07:43;;;;;;;10.83;7.03;;;14.10;99.90;;;;;;4966539;28;20205;-54
2023/07/18 05:10:10;;;;;;;11.23;6.60;;;14.10;99.90;;;;;;4969423;28;20260;-53
2023/07/18 05:12:37;;;;;;;13.30;7.87;;;14.10;99.90;;;;;;4969768;28;20210;-56
2023/07/18 05:15:04;;;;;;;10.63;7.07;;;14.20;99.90;;;;;;4948001;28;20320;-53
2023/07/18 05:17:31;;;;;;;15.70;7.17;;;14.20;99.90;;;;;;4968185;28;20213;-54
2023/07/18 05:19:58;;;;;;;13.73;6.73;;;14.20;99.90;;;;;;4961945;28;20209;-54
2023/07/18 05:22:25;;;;;;;14.07;7.07;;;14.20;99.90;;;;;;4964626;28;20217;-54
2023/07/18 05:24:53;;;;;;;12.30;7.13;;;14.20;99.90;;;;;;4966733;28;20209;-50
2023/07/18 05:27:21;;;;;;;9.53;6.37;;;14.30;99.90;;;;;;4974694;28;20697;-52
2023/07/18 05:29:48;;;;;;;13.33;6.90;;;14.30;99.90;;;;;;4948511;28;20214;-56
2023/07/18 05:32:15;;;;;;;10.83;6.97;;;14.40;99.90;;;;;;4971716;28;20736;-52
2023/07/18 05:34:42;;;;;;;14.40;6.93;;;14.40;99.90;;;;;;4959191;28;20297;-54
2023/07/18 05:37:09;;;;;;;11.03;7.00;;;14.50;99.90;;;;;;4971524;28;20279;-52
2023/07/18 05:39:36;;;;;;;10.27;6.97;;;14.50;99.90;;;;;;4968899;28;20682;-55
2023/07/18 05:42:05;;;;;;;12.23;7.23;;;14.50;99.90;;;;;;4974930;28;20209;-54
2023/07/18 05:44:32;;;;;;;12.33;7.33;;;14.60;99.90;;;;;;4962659;28;20957;-54
2023/07/18 05:46:59;;;;;;;9.57;6.20;;;14.60;99.90;;;;;;4954901;28;20241;-50
2023/07/18 05:49:26;;;;;;;10.27;7.03;;;14.60;99.90;;;;;;4974990;28;20197;-51
2023/07/18 05:51:53;;;;;;;8.60;6.27;;;14.70;99.90;;;;;;4968800;28;21086;-52
2023/07/18 05:54:20;;;;;;;11.53;6.53;;;14.80;99.90;;;;;;4975945;28;20255;-50
2023/07/18 05:56:47;;;;;;;10.80;6.70;;;14.90;99.90;;;;;;4960946;28;20276;-55
2023/07/18 05:59:15;;;;;;;11.23;6.83;;;15.00;99.90;;;;;;4966244;28;20218;-54
2023/07/18 06:01:44;;;;;;;13.33;6.57;;;15.00;99.90;;;;;;4958630;28;20189;-56
2023/07/18 06:04:15;;;;;;;10.10;5.70;;;15.10;99.90;;;;;;4975924;28;20701;-53
2023/07/18 06:06:43;;;;;;;11.73;5.87;;;15.20;99.90;;;;;;4968976;28;20344;-51
2023/07/18 06:09:10;;;;;;;11.90;5.40;;;15.20;99.90;;;;;;4975448;28;20215;-49
2023/07/18 06:11:37;;;;;;;10.63;6.00;;;15.30;99.90;;;;;;4960390;28;21017;-51
2023/07/18 06:14:05;;;;;;;14.17;6.17;;;15.40;99.90;;;;;;4970688;28;20209;-52
2023/07/18 06:16:33;;;;;;;14.73;5.97;;;15.50;99.90;;;;;;4975351;28;20214;-51
2023/07/18 06:19:00;;;;;;;10.90;5.47;;;15.60;99.90;;;;;;4959220;28;20293;-54
2023/07/18 06:21:27;;;;;;;11.60;5.43;;;15.70;99.90;;;;;;4963173;28;20213;-52
2023/07/18 06:23:54;;;;;;;8.30;5.17;;;15.70;99.90;;;;;;4975422;28;20221;-51
2023/07/18 06:26:25;;;;;;;11.33;5.07;;;15.70;99.90;;;;;;4953560;28;20728;-52
2023/07/18 06:28:53;;;;;;;13.10;5.30;;;15.80;99.90;;;;;;4968576;28;20221;-51
2023/07/18 06:31:21;;;;;;;8.50;4.67;;;15.90;99.90;;;;;;4978522;28;20202;-48
2023/07/18 06:33:52;;;;;;;10.63;4.73;;;16.00;99.90;;;;;;4942285;28;20668;-51
2023/07/18 06:36:20;;;;;;;11.10;4.77;;;16.00;99.90;;;;;;4973442;28;20563;-54
2023/07/18 06:38:48;;;;;;;7.33;4.50;;;16.10;99.90;;;;;;4965299;28;20937;-48
2023/07/18 06:41:16;;;;;;;17.23;5.50;;;16.20;99.90;;;;;;4962285;28;20186;-52
2023/07/18 06:43:46;;;;;;;9.50;4.47;;;16.20;99.90;;;;;;4976812;28;20574;-54
2023/07/18 06:46:15;;;;;;;11.23;4.57;;;16.30;99.90;;;;;;4970189;28;20280;-54
2023/07/18 06:48:45;;;;;;;9.77;4.30;;;16.30;99.90;;;;;;4954451;28;20291;-50
2023/07/18 06:51:15;;;;;;;10.07;4.37;;;16.40;99.90;;;;;;4977204;28;20802;-54
2023/07/18 06:53:46;;;;;;;9.37;3.80;;;16.40;99.90;;;;;;4959513;28;20893;-49
2023/07/18 06:56:13;;;;;;;11.03;4.83;;;16.40;99.90;;;;;;4971172;28;20246;-52
2023/07/18 06:58:42;;;;;;;12.77;4.33;;;16.50;99.90;;;;;;4964209;28;21747;-48
2023/07/18 07:01:13;;;;;;;8.37;4.20;;;16.50;99.90;;;;;;4970852;28;20804;-53
2023/07/18 07:03:49;;;;;;;9.63;4.03;;;16.60;99.90;;;;;;4959877;28;22172;-49
2023/07/18 07:06:20;;;;;;;10.60;4.00;;;16.70;99.90;;;;;;4958540;28;20226;-48
2023/07/18 07:08:52;;;;;;;11.17;4.63;;;16.90;99.90;;;;;;4963618;28;20296;-51
2023/07/18 07:11:21;;;;;;;11.17;4.60;;;17.00;99.90;;;;;;4973850;28;20572;-48
2023/07/18 07:13:52;;;;;;;7.10;3.73;;;17.10;99.90;;;;;;4963414;28;20285;-51
2023/07/18 07:16:20;;;;;;;9.63;4.23;;;17.10;99.90;;;;;;4971055;28;20641;-50
2023/07/18 07:18:52;;;;;;;8.87;4.10;;;17.00;99.90;;;;;;4952265;28;21021;-49
2023/07/18 07:21:22;;;;;;;11.47;3.60;;;17.00;99.90;;;;;;4964249;28;20209;-55
2023/07/18 07:23:53;;;;;;;9.57;4.00;;;17.00;99.90;;;;;;4968226;28;21676;-49
2023/07/18 07:26:24;;;;;;;10.13;4.57;;;17.00;99.90;;;;;;4983175;28;20241;-48
2023/07/18 07:28:52;;;;;;;7.13;4.07;;;17.00;99.90;;;;;;4958994;28;20956;-49
2023/07/18 07:31:23;;;;;;;11.97;3.80;;;17.10;99.90;;;;;;4975184;28;20215;-50
2023/07/18 07:33:56;;;;;;;5.53;3.87;;;17.30;99.90;;;;;;4949964;28;20847;-52
2023/07/18 07:36:26;;;;;;;9.63;3.50;;;17.40;99.90;;;;;;4960364;28;20888;-53
2023/07/18 07:39:00;;;;;;;10.20;4.63;;;17.60;99.90;;;;;;4973376;28;20810;-50
2023/07/18 07:41:33;;;;;;;11.30;4.50;;;17.70;99.90;;;;;;4968915;28;20217;-50
2023/07/18 07:44:02;;;;;;;9.77;4.00;;;17.70;99.90;;;;;;4967311;28;20209;-51
2023/07/18 07:46:32;;;;;;;11.13;3.50;;;17.60;99.90;;;;;;4963813;28;20243;-53
2023/07/18 07:48:59;;;;;;;7.60;4.33;;;17.60;99.90;;;;;;4972398;28;20253;-50
2023/07/18 07:51:30;;;;;;;5.23;3.40;;;17.60;99.90;;;;;;4949830;28;20213;-50
2023/07/18 07:54:00;;;;;;;8.87;3.50;;;17.70;99.90;;;;;;4973199;28;20574;-47
2023/07/18 07:56:32;;;;;;;8.13;4.07;;;17.70;99.90;;;;;;4967371;28;20229;-53
2023/07/18 07:59:07;;;;;;;7.67;3.40;;;17.70;99.90;;;;;;4973021;28;20707;-50
2023/07/18 08:01:38;;;;;;;6.90;3.50;;;17.70;99.90;;;;;;4962793;28;20204;-55
2023/07/18 08:04:13;;;;;;;7.87;3.23;;;17.70;99.90;;;;;;4962535;28;20210;-50
2023/07/18 08:06:48;;;;;;;10.10;3.80;;;17.70;99.90;;;;;;4956530;28;20911;-52
2023/07/18 08:09:20;;;;;;;9.00;2.80;;;17.70;99.90;;;;;;4977007;28;20197;-50
2023/07/18 08:11:51;;;;;;;7.90;3.27;;;17.70;99.90;;;;;;4967979;28;21022;-50
2023/07/18 08:14:19;;;;;;;9.27;3.23;;;17.80;99.90;;;;;;4975849;28;20321;-52
2023/07/18 08:16:49;;;;;;;4.87;2.90;;;17.80;99.90;;;;;;4956698;28;20852;-53
2023/07/18 08:19:24;;;;;;;11.20;2.73;;;17.90;99.90;;;;;;4962566;28;20209;-48
2023/07/18 08:22:02;;;;;;;3.53;3.20;;;17.90;99.90;;;;;;4952482;28;20217;-50
2023/07/18 08:24:33;;;;;;;5.60;3.57;;;17.90;99.90;;;;;;4969062;28;20206;-54
2023/07/18 08:27:08;;;;;;;6.23;2.87;;;18.00;99.90;;;;;;4971930;28;20276;-48
2023/07/18 08:29:43;;;;;;;5.83;2.40;;;18.10;99.90;;;;;;4963470;28;20189;-51
2023/07/18 08:32:15;;;;;;;5.67;3.33;;;18.10;99.90;;;;;;4964568;28;20240;-51
2023/07/18 08:34:43;;;;;;;5.53;2.70;;;18.10;99.90;;;;;;4967181;28;20194;-47
2023/07/18 08:37:16;;;;;;;4.33;3.43;;;18.20;99.90;;;;;;4978132;28;20210;-48
2023/07/18 08:39:47;;;;;;;2.70;2.50;;;18.30;99.90;;;;;;4949890;28;20205;-47
2023/07/18 08:42:24;;;;;;;4.43;2.43;;;18.30;99.90;;;;;;4972559;28;20205;-52
2023/07/18 08:45:04;;;;;;;5.83;2.70;;;18.30;99.90;;;;;;4966047;28;20196;-52
2023/07/18 08:47:39;;;;;;;4.37;2.50;;;18.20;99.90;;;;;;4970755;28;20868;-48
2023/07/18 08:50:11;;;;;;;6.00;2.90;;;18.30;99.90;;;;;;4975480;28;20197;-50
2023/07/18 08:52:49;;;;;;;8.37;2.77;;;18.40;99.90;;;;;;4960436;28;20484;-50
2023/07/18 08:55:21;;;;;;;5.90;2.50;;;18.50;99.90;;;;;;4963769;28;20631;-48
2023/07/18 08:57:54;;;;;;;3.90;2.17;;;18.60;99.90;;;;;;4962770;28;20908;-49
2023/07/18 09:00:25;;;;;;;5.67;3.60;;;18.60;99.90;;;;;;4971232;28;20198;-58
2023/07/18 09:02:56;;;;;;;5.63;2.47;;;18.70;99.90;;;;;;4968015;28;20193;-48
2023/07/18 09:05:33;;;;;;;3.47;2.10;;;18.70;99.90;;;;;;4971907;28;20233;-57
2023/07/18 09:08:07;;;;;;;4.33;1.83;;;18.90;99.90;;;;;;4956552;28;20220;-44
2023/07/18 09:10:39;;;;;;;7.23;2.30;;;18.90;99.90;;;;;;4958657;28;20216;-53
2023/07/18 09:13:09;;;;;;;3.47;2.23;;;;;;;;;;4967080;28;20346;-50
2023/07/18 09:15:40;;;;;;;6.77;1.97;;;19.20;99.90;;;;;;4977579;28;20252;-56
2023/07/18 09:18:12;;;;;;;4.70;2.03;;;19.10;99.90;;;;;;4985661;28;20208;-49
2023/07/18 09:20:41;;;;;;;6.43;2.20;;;19.20;99.90;;;;;;4970813;28;20201;-44
2023/07/18 09:23:14;;;;;;;3.63;2.13;;;19.20;99.90;;;;;;4951346;28;20759;-46
2023/07/18 09:25:46;;;;;;;6.50;1.73;;;19.30;99.90;;;;;;4962915;28;20284;-53
2023/07/18 09:28:17;;;;;;;3.80;1.70;;;19.30;99.90;;;;;;4973618;28;20197;-46
2023/07/18 09:30:47;;;;;;;3.77;1.50;;;19.40;99.90;;;;;;4974652;28;20251;-51
2023/07/18 09:33:15;;;;;;;3.33;1.60;;;19.30;99.90;;;;;;4973670;28;20213;-47
2023/07/18 09:35:46;;;;;;;2.70;1.80;;;19.30;99.90;;;;;;4970853;28;20206;-54
2023/07/18 09:38:16;;;;;;;1.87;1.23;;;19.40;99.90;;;;;;4967395;28;20190;-50
2023/07/18 09:40:47;;;;;;;3.00;2.10;;;19.50;99.90;;;;;;4948233;28;20220;-48
2023/07/18 09:43:20;;;;;;;2.83;1.40;;;19.70;99.90;;;;;;4966691;28;20297;-54
2023/07/18 09:45:53;;;;;;;1.50;1.40;;;;;;;;;;4969880;28;20272;-48
2023/07/18 09:48:28;;;;;;;2.00;1.30;;;20.10;99.90;;;;;;4972475;28;20274;-49
2023/07/18 09:51:04;;;;;;;3.00;1.47;;;20.20;99.90;;;;;;4974165;28;20204;-50
2023/07/18 09:53:51;;;;;;;3.63;1.40;;;20.10;99.90;;;;;;4960008;28;20229;-53
2023/07/18 09:56:20;;;;;;;5.10;1.30;;;19.90;99.90;;;;;;4955503;28;20295;-50
2023/07/18 09:58:53;;;;;;;3.33;1.03;;;19.90;99.90;;;;;;4979677;28;20999;-52
2023/07/18 10:01:32;;;;;;;2.47;1.40;;;19.90;99.90;;;;;;4971638;28;20308;-50
2023/07/18 10:04:00;;;;;;;2.07;1.10;;;20.10;99.90;;;;;;4975682;28;20201;-47
2023/07/18 10:06:34;;;;;;;2.10;1.50;;;20.10;99.90;;;;;;4966562;28;20237;-47
2023/07/18 10:09:06;;;;;;;3.73;1.20;;;20.10;99.90;;;;;;4966773;28;20209;-51
2023/07/18 10:12:15;;;;;;;2.70;1.10;;;20.10;99.90;;;;;;4955901;28;20205;-49
2023/07/18 10:14:56;;;;;;;1.87;1.03;;;20.20;99.90;;;;;;4957618;28;20299;-52
2023/07/18 10:17:36;;;;;;;2.13;1.03;;;20.30;99.90;;;;;;4966013;28;20241;-52
2023/07/18 10:20:13;;;;;;;4.93;1.10;;;20.30;99.90;;;;;;4964433;28;20193;-54
2023/07/18 10:22:49;;;;;;;3.10;1.20;;;20.30;99.90;;;;;;4957261;28;20279;-53
2023/07/18 10:25:18;;;;;;;2.83;1.40;;;20.30;99.90;;;;;;4968793;28;20205;-53
2023/07/18 10:27:46;;;;;;;1.63;1.10;;;20.30;99.90;;;;;;4958456;28;20291;-54
2023/07/18 10:30:15;;;;;;;1.53;1.10;;;20.20;99.90;;;;;;4972375;28;20201;-53
2023/07/18 10:32:44;;;;;;;2.00;1.30;;;20.10;99.90;;;;;;4972693;28;20201;-47
2023/07/18 10:35:14;;;;;;;2.20;1.20;;;20.20;99.90;;;;;;4967144;28;20316;-49
2023/07/18 10:37:57;;;;;;;1.73;1.10;;;20.20;99.90;;;;;;4956974;28;20216;-52
2023/07/18 10:40:40;;;;;;;3.00;1.23;;;20.30;99.90;;;;;;4975369;28;20585;-46
2023/07/18 10:43:11;;;;;;;4.13;1.47;;;20.30;99.90;;;;;;4951390;28;20812;-52
2023/07/18 10:45:42;;;;;;;1.40;1.30;;;20.50;99.90;;;;;;4971172;28;20218;-48
2023/07/18 10:48:15;;;;;;;1.57;1.00;;;20.60;99.90;;;;;;4958519;28;20549;-51
2023/07/18 10:50:51;;;;;;;2.50;1.37;;;20.60;99.90;;;;;;4965537;28;20194;-51
2023/07/18 10:53:20;;;;;;;3.20;1.20;;;;;;;;;;4974388;28;20279;-51
2023/07/18 10:55:56;;;;;;;1.97;1.07;;;;;;;;;;4970817;28;20222;-50
2023/07/18 10:58:24;;;;;;;2.10;1.20;;;;;;;;;;4948732;28;20783;-48
2023/07/18 11:00:52;;;;;;;0.90;0.90;;;;;;;;;;4975790;28;20186;-48
2023/07/18 11:03:23;;;;;;;2.90;1.00;;;;;;;;;;4950667;28;20986;-47
2023/07/18 11:05:56;;;;;;;2.72;1.23;;;;;;;;;;4976596;28;20300;-50
2023/07/18 11:08:28;;;;;;;1.35;0.90;;;;;;;;;;4962311;28;20272;-53
2023/07/18 11:11:01;;;;;;;1.80;1.00;;;;;;;;;;4973004;28;20574;-46
2023/07/18 11:13:36;;;;;;;2.38;1.00;;;;;;;;;;4959752;28;20224;-48
2023/07/18 11:16:06;;;;;;;1.93;1.00;;;;;;;;;;4965917;28;20434;-54
2023/07/18 11:18:38;;;;;;;3.22;1.00;;;;;;;;;;4973381;28;20223;-50
2023/07/18 11:21:08;;;;;;;1.88;0.80;;;;;;;;;;4974646;28;20260;-56
2023/07/18 11:23:39;;;;;;;2.55;0.90;;;;;;;;;;4967514;28;20221;-43
2023/07/18 11:26:16;;;;;;;1.77;0.90;;;;;;;;;;4972719;28;20235;-53
2023/07/18 11:28:50;;;;;;;2.58;1.00;;;;;;;;;;4964776;28;20676;-52
2023/07/18 11:31:27;;;;;;;2.10;0.95;;;;;;;;;;4946105;28;20209;-57
2023/07/18 11:33:56;;;;;;;4.43;1.30;;;;;;;;;;4971416;28;20229;-50
2023/07/18 11:36:35;;;;;;;3.53;1.00;;;;;;;;;;4969456;28;20288;-49
2023/07/18 11:39:19;;;;;;;1.77;1.00;;;;;;;;;;4965194;28;20202;-53
2023/07/18 11:41:51;;;;;;;8.25;1.33;;;;;;;;;;4966328;28;20212;-54
2023/07/18 11:44:34;;;;;;;1.73;0.80;;;;;;;;;;4967557;28;20684;-57
2023/07/18 11:47:12;;;;;;;1.85;0.95;;;;;;;;;;4958496;28;20217;-53
2023/07/18 11:49:40;;;;;;;1.15;0.90;;;;;;;;;;4977300;28;20189;-53
2023/07/18 11:52:09;;;;;;;1.20;0.90;;;;;;;;;;4966526;28;20694;-56
2023/07/18 11:54:37;;;;;;;1.95;1.13;;;;;;;;;;4968183;28;20291;-45
2023/07/18 11:57:10;;;;;;;1.80;0.93;;;;;;;;;;4967451;28;20979;-59
2023/07/18 11:59:41;;;;;;;5.78;1.60;;;;;;;;;;4967135;28;20700;-48
2023/07/18 12:02:10;;;;;;;1.23;0.90;;;;;;;;;;4956939;28;20217;-57
2023/07/18 12:04:41;;;;;;;1.52;1.10;;;;;;;;;;4974935;28;20829;-50
2023/07/18 12:07:08;;;;;;;1.42;0.90;;;;;;;;;;4973210;28;20724;-56
2023/07/18 12:09:42;;;;;;;2.20;1.10;;;;;;;;;;4968334;28;20213;-54
2023/07/18 12:12:14;;;;;;;7.32;1.10;;;;;;;;;;4965140;28;20218;-59
2023/07/18 12:14:47;;;;;;;1.77;0.90;;;;;;;;;;4967941;28;20769;-46
2023/07/18 12:17:15;;;;;;;2.38;0.85;;;;;;;;;;4952959;28;20226;-58
2023/07/18 12:19:42;;;;;;;1.75;1.10;;;;;;;;;;4971370;28;20224;-45
2023/07/18 12:22:09;;;;;;;3.00;1.15;;;;;;;;;;4966129;28;20659;-58
2023/07/18 12:24:36;;;;;;;1.83;0.80;;;;;;;;;;4966318;28;20290;-52
2023/07/18 12:27:05;;;;;;;2.42;1.05;;;;;;;;;;4967729;28;20298;-59
2023/07/18 12:29:34;;;;;;;3.47;1.25;;;;;;;;;;4966376;28;20209;-51
2023/07/18 12:32:01;;;;;;;3.30;1.10;;;;;;;;;;4973296;28;20193;-59
2023/07/18 12:34:28;;;;;;;3.40;1.00;;;;;;;;;;4961093;28;20249;-46
2023/07/18 12:36:55;;;;;;;2.17;1.10;;;;;;;;;;4977196;28;20291;-51
2023/07/18 12:39:22;;;;;;;1.35;0.88;;;;;;;;;;4969303;28;20249;-53
2023/07/18 12:41:50;;;;;;;3.40;1.25;;;;;;;;;;4962899;28;20209;-47
2023/07/18 12:44:19;;;;;;;2.33;0.90;;;;;;;;;;4970379;28;20801;-49
2023/07/18 12:46:48;;;;;;;2.05;0.77;;;;;;;;;;4964626;28;20276;-55
2023/07/18 12:49:15;;;;;;;1.48;0.65;;;;;;;;;;4956164;28;20679;-54
2023/07/18 12:51:42;;;;;;;1.83;1.02;;;;;;;;;;4966221;28;20216;-54
2023/07/18 12:54:10;;;;;;;5.35;1.15;;;;;;;;;;4963744;28;20268;-59
2023/07/18 12:56:38;;;;;;;3.08;0.93;;;;;;;;;;4971505;28;20368;-52
2023/07/18 12:59:07;;;;;;;1.10;0.80;;;;;;;;;;4967554;28;20546;-59
2023/07/18 13:01:34;;;;;;;3.20;0.90;;;;;;;;;;4972422;28;20313;-50
2023/07/18 13:04:04;;;;;;;1.33;1.00;;;;;;;;;;4961819;28;20208;-57
2023/07/18 13:06:32;;;;;;;2.92;0.80;;;;;;;;;;4965785;28;20226;-51
2023/07/18 13:08:59;;;;;;;3.53;1.42;;;;;;;;;;4967613;28;20625;-60
2023/07/18 13:11:27;;;;;;;1.00;0.60;;;;;;;;;;4975338;28;20840;-50
2023/07/18 13:13:54;;;;;;;0.82;0.60;;;;;;;;;;4976447;28;20788;-49
2023/07/18 13:16:21;;;;;;;1.95;0.80;;;;;;;;;;4962596;28;20765;-45
2023/07/18 13:18:49;;;;;;;2.38;0.90;;;;;;;;;;4959809;28;20232;-59